createdAt,value
2023-02-11T00:00:46.532Z,0.00
2023-02-11T00:01:46.538Z,0.00
2023-02-11T00:02:48.011Z,0.00
2023-02-11T00:03:46.597Z,0.00
2023-02-11T00:04:46.511Z,0.00
2023-02-11T00:05:46.469Z,0.00
2023-02-11T00:06:46.517Z,0.00
2023-02-11T00:07:46.477Z,0.00
2023-02-11T00:08:46.465Z,0.00
2023-02-11T00:09:46.499Z,0.00
2023-02-11T00:10:46.420Z,0.00
2023-02-11T00:11:46.488Z,0.00
2023-02-11T00:12:46.553Z,0.00
2023-02-11T00:13:46.398Z,0.00
2023-02-11T00:14:46.438Z,0.00
2023-02-11T00:15:46.378Z,0.00
2023-02-11T00:16:46.506Z,0.00
2023-02-11T00:17:46.390Z,0.00
2023-02-11T00:18:46.349Z,0.00
2023-02-11T00:19:46.329Z,0.00
2023-02-11T00:20:46.357Z,0.00
2023-02-11T00:21:46.323Z,0.00
2023-02-11T00:22:46.301Z,0.00
2023-02-11T00:23:46.363Z,0.00
2023-02-11T00:24:46.283Z,0.00
2023-02-11T00:25:46.288Z,0.00
2023-02-11T00:26:46.272Z,0.00
2023-02-11T00:27:46.250Z,0.00
2023-02-11T00:28:46.319Z,0.00
2023-02-11T00:29:46.260Z,0.00
2023-02-11T00:30:46.363Z,0.00
2023-02-11T00:31:46.376Z,0.00
2023-02-11T00:32:46.218Z,0.00
2023-02-11T00:33:46.208Z,0.00
2023-02-11T00:34:46.207Z,0.00
2023-02-11T00:35:46.186Z,0.00
2023-02-11T00:36:46.167Z,0.00
2023-02-11T00:37:46.168Z,0.00
2023-02-11T00:38:46.166Z,0.00
2023-02-11T00:39:46.157Z,0.00
2023-02-11T00:40:46.149Z,0.00
2023-02-11T00:41:46.151Z,0.00
2023-02-11T00:42:46.102Z,0.00
2023-02-11T00:43:46.106Z,0.00
2023-02-11T00:44:46.102Z,0.00
2023-02-11T00:45:46.095Z,0.00
2023-02-11T00:46:46.065Z,0.00
2023-02-11T00:47:46.132Z,0.00
2023-02-11T00:48:46.029Z,0.00
2023-02-11T00:49:46.136Z,0.00
2023-02-11T00:50:46.046Z,0.00
2023-02-11T00:51:45.996Z,0.00
2023-02-11T00:52:46.007Z,0.00
2023-02-11T00:53:46.053Z,0.00
2023-02-11T00:54:46.011Z,0.00
2023-02-11T00:55:45.959Z,0.00
2023-02-11T00:56:45.935Z,0.00
2023-02-11T00:57:45.937Z,0.00
2023-02-11T00:58:46.062Z,0.00
2023-02-11T00:59:45.920Z,0.00
2023-02-11T01:00:45.916Z,0.00
2023-02-11T01:01:45.955Z,0.00
2023-02-11T01:02:45.948Z,0.00
2023-02-11T01:03:45.888Z,0.00
2023-02-11T01:04:45.905Z,0.00
2023-02-11T01:05:45.875Z,0.00
2023-02-11T01:06:45.860Z,0.00
2023-02-11T01:07:45.878Z,0.00
2023-02-11T01:08:45.860Z,0.00
2023-02-11T01:09:45.813Z,0.00
2023-02-11T01:10:45.803Z,0.00
2023-02-11T01:11:45.789Z,0.00
2023-02-11T01:12:45.838Z,0.00
2023-02-11T01:13:45.774Z,0.00
2023-02-11T01:14:45.855Z,0.00
2023-02-11T01:15:45.753Z,0.00
2023-02-11T01:16:45.813Z,0.00
2023-02-11T01:17:45.754Z,0.00
2023-02-11T01:18:45.817Z,0.00
2023-02-11T01:19:45.716Z,0.00
2023-02-11T01:20:45.695Z,0.00
2023-02-11T01:21:45.696Z,0.00
2023-02-11T01:22:45.692Z,0.00
2023-02-11T01:23:45.700Z,0.00
2023-02-11T01:24:45.693Z,0.00
2023-02-11T01:25:45.653Z,0.00
2023-02-11T01:26:45.667Z,0.00
2023-02-11T01:27:45.646Z,0.00
2023-02-11T01:28:45.636Z,0.00
2023-02-11T01:29:45.606Z,0.00
2023-02-11T01:30:45.675Z,0.00
2023-02-11T01:31:45.644Z,0.00
2023-02-11T01:32:45.586Z,0.00
2023-02-11T01:33:45.589Z,0.00
2023-02-11T01:34:45.548Z,0.00
2023-02-11T01:35:45.582Z,0.00
2023-02-11T01:36:45.560Z,0.00
2023-02-11T01:37:45.533Z,0.00
2023-02-11T01:38:45.663Z,0.00
2023-02-11T01:39:45.530Z,0.00
2023-02-11T01:40:45.518Z,0.00
2023-02-11T01:41:45.501Z,0.00
2023-02-11T01:42:45.500Z,0.00
2023-02-11T01:43:45.666Z,0.00
2023-02-11T01:44:45.448Z,0.00
2023-02-11T01:45:45.516Z,0.00
2023-02-11T01:46:45.507Z,0.00
2023-02-11T01:47:45.431Z,0.00
2023-02-11T01:48:45.420Z,0.00
2023-02-11T01:49:45.413Z,0.00
2023-02-11T01:50:45.432Z,0.00
2023-02-11T01:51:45.379Z,0.00
2023-02-11T01:52:45.369Z,0.00
2023-02-11T01:53:45.398Z,0.00
2023-02-11T01:54:45.364Z,0.00
2023-02-11T01:55:45.360Z,0.00
2023-02-11T01:56:45.332Z,0.00
2023-02-11T01:57:45.322Z,0.00
2023-02-11T01:58:45.321Z,0.00
2023-02-11T01:59:45.339Z,0.00
2023-02-11T02:00:45.331Z,0.00
2023-02-11T02:01:45.402Z,0.00
2023-02-11T02:02:45.288Z,0.00
2023-02-11T02:03:45.287Z,0.00
2023-02-11T02:04:45.254Z,0.00
2023-02-11T02:05:45.253Z,0.00
2023-02-11T02:06:45.302Z,0.00
2023-02-11T02:07:45.222Z,0.00
2023-02-11T02:08:45.202Z,0.00
2023-02-11T02:09:45.202Z,0.00
2023-02-11T02:10:45.182Z,0.00
2023-02-11T02:11:45.188Z,0.00
2023-02-11T02:12:45.163Z,0.00
2023-02-11T02:13:45.169Z,0.00
2023-02-11T02:14:45.181Z,0.00
2023-02-11T02:15:45.149Z,0.00
2023-02-11T02:16:45.143Z,0.00
2023-02-11T02:17:45.125Z,0.00
2023-02-11T02:18:45.102Z,0.00
2023-02-11T02:19:45.120Z,0.00
2023-02-11T02:20:45.117Z,0.00
2023-02-11T02:21:45.107Z,0.00
2023-02-11T02:22:45.070Z,0.00
2023-02-11T02:23:45.065Z,0.00
2023-02-11T02:24:45.059Z,0.00
2023-02-11T02:25:45.043Z,0.00
2023-02-11T02:26:45.140Z,0.00
2023-02-11T02:27:45.010Z,0.00
2023-02-11T02:28:45.028Z,0.00
2023-02-11T02:29:45.317Z,0.00
2023-02-11T02:30:45.037Z,0.00
2023-02-11T02:31:45.084Z,0.00
2023-02-11T02:32:44.966Z,0.00
2023-02-11T02:33:44.996Z,0.00
2023-02-11T02:34:44.953Z,0.00
2023-02-11T02:35:44.950Z,0.00
2023-02-11T02:36:44.940Z,0.00
2023-02-11T02:37:44.913Z,0.00
2023-02-11T02:38:44.924Z,0.00
2023-02-11T02:39:44.901Z,0.00
2023-02-11T02:40:44.875Z,0.00
2023-02-11T02:41:44.888Z,0.00
2023-02-11T02:42:44.881Z,0.00
2023-02-11T02:43:44.900Z,0.00
2023-02-11T02:44:44.881Z,0.00
2023-02-11T02:45:44.844Z,0.00
2023-02-11T02:46:44.881Z,0.00
2023-02-11T02:47:44.828Z,0.00
2023-02-11T02:48:44.850Z,0.00
2023-02-11T02:49:44.823Z,0.00
2023-02-11T02:50:44.787Z,0.00
2023-02-11T02:51:44.781Z,0.00
2023-02-11T02:52:44.784Z,0.00
2023-02-11T02:53:44.774Z,0.00
2023-02-11T02:54:44.762Z,0.00
2023-02-11T02:55:44.734Z,0.00
2023-02-11T02:56:44.727Z,0.00
2023-02-11T02:57:44.706Z,0.00
2023-02-11T02:58:47.091Z,0.00
2023-02-11T02:59:44.695Z,0.00
2023-02-11T03:00:44.729Z,0.00
2023-02-11T03:01:44.683Z,0.00
2023-02-11T03:02:44.675Z,0.00
2023-02-11T03:03:44.733Z,0.00
2023-02-11T03:04:44.726Z,0.00
2023-02-11T03:05:44.655Z,0.00
2023-02-11T03:06:44.635Z,0.00
2023-02-11T03:07:44.648Z,0.00
2023-02-11T03:08:44.761Z,0.00
2023-02-11T03:09:44.650Z,0.00
2023-02-11T03:10:44.629Z,0.00
2023-02-11T03:11:44.605Z,0.00
2023-02-11T03:12:44.586Z,0.00
2023-02-11T03:13:44.570Z,0.00
2023-02-11T03:14:44.577Z,0.00
2023-02-11T03:15:44.556Z,0.00
2023-02-11T03:16:44.537Z,0.00
2023-02-11T03:17:44.520Z,0.00
2023-02-11T03:18:44.517Z,0.00
2023-02-11T03:19:44.516Z,0.00
2023-02-11T03:20:44.499Z,0.00
2023-02-11T03:21:44.504Z,0.00
2023-02-11T03:22:44.488Z,0.00
2023-02-11T03:23:44.473Z,0.00
2023-02-11T03:24:44.475Z,0.00
2023-02-11T03:25:44.469Z,0.00
2023-02-11T03:26:44.425Z,0.00
2023-02-11T03:27:44.429Z,0.00
2023-02-11T03:28:44.411Z,0.00
2023-02-11T03:29:44.420Z,0.00
2023-02-11T03:30:44.501Z,0.00
2023-02-11T03:31:44.463Z,0.00
2023-02-11T03:32:44.387Z,0.00
2023-02-11T03:33:44.391Z,0.00
2023-02-11T03:34:44.360Z,0.00
2023-02-11T03:35:44.345Z,0.00
2023-02-11T03:36:44.322Z,0.00
2023-02-11T03:37:44.323Z,0.00
2023-02-11T03:38:44.336Z,0.00
2023-02-11T03:39:44.318Z,0.00
2023-02-11T03:40:44.289Z,0.00
2023-02-11T03:41:44.291Z,0.00
2023-02-11T03:42:44.309Z,0.00
2023-02-11T03:43:44.270Z,0.00
2023-02-11T03:44:44.328Z,0.00
2023-02-11T03:45:44.294Z,0.00
2023-02-11T03:46:44.215Z,0.00
2023-02-11T03:47:44.222Z,0.00
2023-02-11T03:48:44.231Z,0.00
2023-02-11T03:49:44.216Z,0.00
2023-02-11T03:50:44.204Z,0.00
2023-02-11T03:51:44.183Z,0.00
2023-02-11T03:52:44.174Z,0.00
2023-02-11T03:53:44.155Z,0.00
2023-02-11T03:54:44.164Z,0.00
2023-02-11T03:55:44.139Z,0.00
2023-02-11T03:56:44.133Z,0.00
2023-02-11T03:57:44.130Z,0.00
2023-02-11T03:58:44.115Z,0.00
2023-02-11T03:59:44.105Z,0.00
2023-02-11T04:00:44.089Z,0.00
2023-02-11T04:01:44.083Z,0.00
2023-02-11T04:02:44.164Z,0.00
2023-02-11T04:03:44.047Z,0.00
2023-02-11T04:04:44.066Z,0.00
2023-02-11T04:05:44.032Z,0.00
2023-02-11T04:06:44.024Z,0.00
2023-02-11T04:07:44.047Z,0.00
2023-02-11T04:08:43.996Z,0.00
2023-02-11T04:09:44.019Z,0.00
2023-02-11T04:10:43.994Z,0.00
2023-02-11T04:11:43.989Z,0.00
2023-02-11T04:12:43.974Z,0.00
2023-02-11T04:13:43.956Z,0.00
2023-02-11T04:14:43.970Z,0.00
2023-02-11T04:15:43.954Z,0.00
2023-02-11T04:16:43.943Z,0.00
2023-02-11T04:17:43.944Z,0.00
2023-02-11T04:18:43.906Z,0.00
2023-02-11T04:19:43.889Z,0.00
2023-02-11T04:20:43.867Z,0.00
2023-02-11T04:21:43.902Z,0.00
2023-02-11T04:22:43.870Z,0.00
2023-02-11T04:23:43.871Z,0.00
2023-02-11T04:24:43.893Z,0.00
2023-02-11T04:25:43.827Z,0.00
2023-02-11T04:26:43.835Z,0.00
2023-02-11T04:27:43.843Z,0.00
2023-02-11T04:28:43.798Z,0.00
2023-02-11T04:29:43.811Z,0.00
2023-02-11T04:30:43.864Z,0.00
2023-02-11T04:31:43.830Z,0.00
2023-02-11T04:32:43.790Z,0.00
2023-02-11T04:33:43.769Z,0.00
2023-02-11T04:34:43.760Z,0.00
2023-02-11T04:35:43.740Z,0.00
2023-02-11T04:36:43.747Z,0.00
2023-02-11T04:37:43.730Z,0.00
2023-02-11T04:38:43.702Z,0.00
2023-02-11T04:39:43.697Z,0.00
2023-02-11T04:40:43.758Z,0.00
2023-02-11T04:41:43.688Z,0.00
2023-02-11T04:42:43.670Z,0.00
2023-02-11T04:43:43.672Z,0.00
2023-02-11T04:44:43.651Z,0.00
2023-02-11T04:45:43.692Z,0.00
2023-02-11T04:46:43.658Z,0.00
2023-02-11T04:47:43.623Z,0.00
2023-02-11T04:48:43.618Z,0.00
2023-02-11T04:49:43.664Z,0.00
2023-02-11T04:50:43.644Z,0.00
2023-02-11T04:51:43.592Z,0.00
2023-02-11T04:52:43.576Z,0.00
2023-02-11T04:53:43.563Z,0.00
2023-02-11T04:54:43.544Z,0.00
2023-02-11T04:55:43.552Z,0.00
2023-02-11T04:56:43.545Z,0.00
2023-02-11T04:57:43.524Z,0.00
2023-02-11T04:58:43.510Z,0.00
2023-02-11T04:59:43.509Z,0.00
2023-02-11T05:00:43.508Z,0.00
2023-02-11T05:01:43.473Z,0.00
2023-02-11T05:02:43.467Z,0.00
2023-02-11T05:03:43.493Z,0.00
2023-02-11T05:04:43.475Z,0.00
2023-02-11T05:05:43.456Z,0.00
2023-02-11T05:06:43.414Z,0.00
2023-02-11T05:07:43.433Z,0.00
2023-02-11T05:08:43.417Z,0.00
2023-02-11T05:09:43.396Z,0.00
2023-02-11T05:10:43.407Z,0.00
2023-02-11T05:11:43.497Z,0.00
2023-02-11T05:12:43.354Z,0.00
2023-02-11T05:13:43.383Z,0.00
2023-02-11T05:14:43.373Z,0.00
2023-02-11T05:15:43.367Z,0.00
2023-02-11T05:16:43.424Z,0.00
2023-02-11T05:17:43.315Z,0.00
2023-02-11T05:18:43.313Z,0.00
2023-02-11T05:19:43.306Z,0.00
2023-02-11T05:20:43.315Z,0.00
2023-02-11T05:21:56.685Z,0.00
2023-02-11T05:22:44.259Z,0.00
2023-02-11T05:23:43.248Z,0.00
2023-02-11T05:24:43.243Z,0.00
2023-02-11T05:25:43.259Z,0.00
2023-02-11T05:26:43.224Z,0.00
2023-02-11T05:27:43.213Z,0.00
2023-02-11T05:28:43.194Z,0.00
2023-02-11T05:29:43.209Z,0.00
2023-02-11T05:30:43.224Z,0.00
2023-02-11T05:31:43.187Z,0.00
2023-02-11T05:32:43.166Z,0.00
2023-02-11T05:33:43.198Z,0.00
2023-02-11T05:34:43.166Z,0.00
2023-02-11T05:35:43.158Z,0.00
2023-02-11T05:36:43.134Z,0.00
2023-02-11T05:37:43.127Z,0.00
2023-02-11T05:38:43.118Z,0.00
2023-02-11T05:39:43.112Z,0.00
2023-02-11T05:40:43.116Z,0.00
2023-02-11T05:41:43.103Z,0.00
2023-02-11T05:42:43.057Z,0.00
2023-02-11T05:43:43.085Z,0.00
2023-02-11T05:44:43.048Z,0.00
2023-02-11T05:45:43.081Z,0.00
2023-02-11T05:46:43.159Z,0.00
2023-02-11T05:47:43.009Z,0.00
2023-02-11T05:48:43.070Z,0.00
2023-02-11T05:49:43.007Z,0.00
2023-02-11T05:50:43.004Z,0.00
2023-02-11T05:51:43.016Z,0.00
2023-02-11T05:52:42.989Z,0.00
2023-02-11T05:53:42.993Z,0.00
2023-02-11T05:54:42.904Z,1.00
2023-02-11T05:55:43.054Z,0.00
2023-02-11T05:56:44.794Z,1.00
2023-02-11T05:57:42.930Z,0.00
2023-02-11T05:58:42.933Z,0.00
2023-02-11T05:59:42.920Z,0.00
2023-02-11T06:00:42.879Z,0.00
2023-02-11T06:01:42.905Z,0.00
2023-02-11T06:02:42.844Z,1.00
2023-02-11T06:03:42.872Z,1.00
2023-02-11T06:04:42.790Z,1.00
2023-02-11T06:05:42.796Z,1.00
2023-02-11T06:06:42.878Z,0.00
2023-02-11T06:07:42.825Z,0.00
2023-02-11T06:08:42.843Z,0.00
2023-02-11T06:09:42.819Z,0.00
2023-02-11T06:10:42.731Z,3.00
2023-02-11T06:11:42.734Z,2.00
2023-02-11T06:12:42.731Z,2.00
2023-02-11T06:13:42.703Z,1.00
2023-02-11T06:14:42.691Z,3.00
2023-02-11T06:15:42.791Z,6.00
2023-02-11T06:16:42.662Z,5.00
2023-02-11T06:17:42.693Z,4.00
2023-02-11T06:18:42.665Z,4.00
2023-02-11T06:19:42.655Z,7.00
2023-02-11T06:20:42.638Z,10.00
2023-02-11T06:21:44.410Z,7.00
2023-02-11T06:22:42.607Z,8.00
2023-02-11T06:23:42.604Z,14.00
2023-02-11T06:25:00.260Z,15.00
2023-02-11T06:25:43.596Z,17.00
2023-02-11T06:26:42.566Z,15.00
2023-02-11T06:27:42.576Z,34.00
2023-02-11T06:28:42.586Z,27.00
2023-02-11T06:29:42.562Z,29.00
2023-02-11T06:30:42.687Z,36.00
2023-02-11T06:31:42.717Z,40.00
2023-02-11T06:32:44.885Z,44.00
2023-02-11T06:33:42.488Z,43.00
2023-02-11T06:34:42.525Z,36.00
2023-02-11T06:35:42.560Z,41.00
2023-02-11T06:36:42.471Z,42.00
2023-02-11T06:37:42.563Z,60.00
2023-02-11T06:38:42.504Z,66.00
2023-02-11T06:39:42.453Z,57.00
2023-02-11T06:40:42.425Z,79.00
2023-02-11T06:41:42.410Z,86.00
2023-02-11T06:42:42.449Z,99.00
2023-02-11T06:43:42.421Z,102.00
2023-02-11T06:44:42.492Z,81.00
2023-02-11T06:45:42.396Z,114.00
2023-02-11T06:46:42.404Z,146.00
2023-02-11T06:47:42.359Z,132.00
2023-02-11T06:48:44.753Z,122.00
2023-02-11T06:49:42.417Z,98.00
2023-02-11T06:50:42.339Z,125.00
2023-02-11T06:51:42.332Z,153.00
2023-02-11T06:52:42.324Z,128.00
2023-02-11T06:53:42.322Z,156.00
2023-02-11T06:54:42.289Z,158.00
2023-02-11T06:55:42.279Z,158.00
2023-02-11T06:56:42.271Z,133.00
2023-02-11T06:57:42.267Z,143.00
2023-02-11T06:58:42.276Z,151.00
2023-02-11T06:59:42.251Z,139.00
2023-02-11T07:00:42.241Z,125.00
2023-02-11T07:01:42.280Z,126.00
2023-02-11T07:02:42.250Z,155.00
2023-02-11T07:03:42.231Z,169.00
2023-02-11T07:04:42.203Z,158.00
2023-02-11T07:05:42.207Z,150.00
2023-02-11T07:06:42.170Z,168.00
2023-02-11T07:07:42.162Z,177.00
2023-02-11T07:08:42.145Z,166.00
2023-02-11T07:09:42.156Z,185.00
2023-02-11T07:10:42.132Z,177.00
2023-02-11T07:11:42.239Z,201.00
2023-02-11T07:12:42.130Z,164.00
2023-02-11T07:13:42.091Z,199.00
2023-02-11T07:14:42.107Z,235.00
2023-02-11T07:15:42.109Z,218.00
2023-02-11T07:16:42.098Z,252.00
2023-02-11T07:17:42.090Z,212.00
2023-02-11T07:18:42.068Z,303.00
2023-02-11T07:19:42.035Z,260.00
2023-02-11T07:20:42.075Z,229.00
2023-02-11T07:21:42.061Z,330.00
2023-02-11T07:22:42.027Z,287.00
2023-02-11T07:23:42.050Z,275.00
2023-02-11T07:24:41.996Z,308.00
2023-02-11T07:25:41.975Z,336.00
2023-02-11T07:26:41.999Z,260.00
2023-02-11T07:27:41.960Z,345.00
2023-02-11T07:28:41.986Z,437.00
2023-02-11T07:29:41.946Z,317.00
2023-02-11T07:30:41.974Z,457.00
2023-02-11T07:31:42.037Z,536.00
2023-02-11T07:32:41.918Z,437.00
2023-02-11T07:33:41.934Z,441.00
2023-02-11T07:34:41.961Z,409.00
2023-02-11T07:35:42.757Z,388.00
2023-02-11T07:36:41.855Z,573.00
2023-02-11T07:37:41.885Z,359.00
2023-02-11T07:38:41.863Z,673.00
2023-02-11T07:39:41.856Z,639.00
2023-02-11T07:40:41.979Z,628.00
2023-02-11T07:41:41.822Z,511.00
2023-02-11T07:42:41.854Z,570.00
2023-02-11T07:43:41.814Z,751.00
2023-02-11T07:44:41.803Z,680.00
2023-02-11T07:45:41.803Z,608.00
2023-02-11T07:46:41.817Z,551.00
2023-02-11T07:47:41.799Z,622.00
2023-02-11T07:48:41.749Z,630.00
2023-02-11T07:49:41.730Z,504.00
2023-02-11T07:50:41.746Z,530.00
2023-02-11T07:51:41.755Z,693.00
2023-02-11T07:52:41.697Z,709.00
2023-02-11T07:53:41.694Z,702.00
2023-02-11T07:54:41.692Z,698.00
2023-02-11T07:55:41.693Z,687.00
2023-02-11T07:56:41.702Z,656.00
2023-02-11T07:57:41.661Z,587.00
2023-02-11T07:58:41.671Z,514.00
2023-02-11T07:59:41.636Z,377.00
2023-02-11T08:00:41.769Z,418.00
2023-02-11T08:01:41.786Z,411.00
2023-02-11T08:02:41.605Z,427.00
2023-02-11T08:03:41.606Z,537.00
2023-02-11T08:04:41.620Z,420.00
2023-02-11T08:05:41.660Z,486.00
2023-02-11T08:06:41.597Z,396.00
2023-02-11T08:07:41.549Z,371.00
2023-02-11T08:08:41.536Z,329.00
2023-02-11T08:09:41.661Z,380.00
2023-02-11T08:10:41.590Z,493.00
2023-02-11T08:11:41.559Z,468.00
2023-02-11T08:12:41.495Z,467.00
2023-02-11T08:13:41.498Z,446.00
2023-02-11T08:14:41.524Z,488.00
2023-02-11T08:15:41.480Z,488.00
2023-02-11T08:16:41.543Z,688.00
2023-02-11T08:17:41.476Z,672.00
2023-02-11T08:18:41.454Z,708.00
2023-02-11T08:19:41.463Z,620.00
2023-02-11T08:20:41.418Z,678.00
2023-02-11T08:21:41.452Z,813.00
2023-02-11T08:22:41.395Z,771.00
2023-02-11T08:23:41.409Z,688.00
2023-02-11T08:24:41.396Z,762.00
2023-02-11T08:25:41.412Z,861.00
2023-02-11T08:26:41.459Z,833.00
2023-02-11T08:27:41.372Z,792.00
2023-02-11T08:28:41.416Z,728.00
2023-02-11T08:29:41.417Z,760.00
2023-02-11T08:30:41.365Z,786.00
2023-02-11T08:31:41.448Z,727.00
2023-02-11T08:32:41.305Z,589.00
2023-02-11T08:33:41.336Z,579.00
2023-02-11T08:34:41.286Z,538.00
2023-02-11T08:35:41.307Z,627.00
2023-02-11T08:36:41.277Z,929.00
2023-02-11T08:37:41.275Z,748.00
2023-02-11T08:38:41.267Z,660.00
2023-02-11T08:39:41.228Z,652.00
2023-02-11T08:40:41.226Z,720.00
2023-02-11T08:41:41.220Z,575.00
2023-02-11T08:42:41.220Z,606.00
2023-02-11T08:43:41.248Z,530.00
2023-02-11T08:44:41.197Z,873.00
2023-02-11T08:45:41.214Z,1071.00
2023-02-11T08:46:41.163Z,780.00
2023-02-11T08:47:41.176Z,580.00
2023-02-11T08:48:41.153Z,557.00
2023-02-11T08:49:41.139Z,308.00
2023-02-11T08:50:41.131Z,650.00
2023-02-11T08:51:41.101Z,723.00
2023-02-11T08:52:41.128Z,519.00
2023-02-11T08:53:41.084Z,490.00
2023-02-11T08:54:41.102Z,545.00
2023-02-11T08:55:41.085Z,497.00
2023-02-11T08:56:41.066Z,290.00
2023-02-11T08:57:41.070Z,632.00
2023-02-11T08:58:41.053Z,733.00
2023-02-11T08:59:41.077Z,632.00
2023-02-11T09:00:41.039Z,747.00
2023-02-11T09:01:41.141Z,885.00
2023-02-11T09:02:41.045Z,740.00
2023-02-11T09:03:41.013Z,836.00
2023-02-11T09:04:40.984Z,881.00
2023-02-11T09:05:40.980Z,711.00
2023-02-11T09:06:40.952Z,703.00
2023-02-11T09:07:40.994Z,814.00
2023-02-11T09:08:40.943Z,724.00
2023-02-11T09:09:40.932Z,919.00
2023-02-11T09:10:40.922Z,769.00
2023-02-11T09:11:40.911Z,478.00
2023-02-11T09:12:40.932Z,657.00
2023-02-11T09:13:40.882Z,697.00
2023-02-11T09:14:40.888Z,647.00
2023-02-11T09:15:40.871Z,753.00
2023-02-11T09:16:40.924Z,535.00
2023-02-11T09:17:40.974Z,646.00
2023-02-11T09:18:40.842Z,669.00
2023-02-11T09:19:40.825Z,520.00
2023-02-11T09:20:40.823Z,715.00
2023-02-11T09:21:40.932Z,564.00
2023-02-11T09:22:40.844Z,716.00
2023-02-11T09:23:40.785Z,693.00
2023-02-11T09:24:40.841Z,781.00
2023-02-11T09:25:40.767Z,510.00
2023-02-11T09:26:40.755Z,812.00
2023-02-11T09:27:40.890Z,746.00
2023-02-11T09:28:40.752Z,846.00
2023-02-11T09:30:36.256Z,605.00
2023-02-11T09:31:36.467Z,592.00
2023-02-11T09:32:36.494Z,549.00
2023-02-11T09:33:36.364Z,753.00
2023-02-11T09:34:36.427Z,801.00
2023-02-11T09:35:36.348Z,598.00
2023-02-11T09:36:36.402Z,604.00
2023-02-11T09:37:37.434Z,629.00
2023-02-11T09:38:36.346Z,762.00
2023-02-11T09:39:36.346Z,713.00
2023-02-11T09:40:36.298Z,645.00
2023-02-11T09:41:36.296Z,669.00
2023-02-11T09:42:36.322Z,656.00
2023-02-11T09:43:36.265Z,685.00
2023-02-11T09:44:36.266Z,746.00
2023-02-11T09:45:36.277Z,649.00
2023-02-11T09:46:36.322Z,857.00
2023-02-11T09:47:36.221Z,849.00
2023-02-11T09:48:36.195Z,1044.00
2023-02-11T09:49:36.191Z,1151.00
2023-02-11T09:50:36.270Z,985.00
2023-02-11T09:51:36.225Z,1023.00
2023-02-11T09:52:36.166Z,1145.00
2023-02-11T09:53:36.191Z,1024.00
2023-02-11T09:54:36.139Z,1198.00
2023-02-11T09:55:36.176Z,1172.00
2023-02-11T09:56:36.118Z,1065.00
2023-02-11T09:57:36.141Z,987.00
2023-02-11T09:58:36.159Z,1072.00
2023-02-11T09:59:36.162Z,1109.00
2023-02-11T10:00:36.117Z,896.00
2023-02-11T10:01:36.430Z,933.00
2023-02-11T10:02:36.060Z,678.00
2023-02-11T10:03:36.050Z,1064.00
2023-02-11T10:04:36.115Z,847.00
2023-02-11T10:05:36.044Z,655.00
2023-02-11T10:06:36.021Z,1057.00
2023-02-11T10:07:36.030Z,1280.00
2023-02-11T10:08:36.009Z,1175.00
2023-02-11T10:09:36.013Z,937.00
2023-02-11T10:10:36.002Z,1043.00
2023-02-11T10:11:35.967Z,1005.00
2023-02-11T10:12:35.962Z,1327.00
2023-02-11T10:13:35.944Z,1210.00
2023-02-11T10:14:35.933Z,865.00
2023-02-11T10:15:35.998Z,779.00
2023-02-11T10:16:35.915Z,852.00
2023-02-11T10:17:35.912Z,924.00
2023-02-11T10:18:35.895Z,1234.00
2023-02-11T10:19:35.943Z,1015.00
2023-02-11T10:20:35.905Z,1137.00
2023-02-11T10:21:35.897Z,1031.00
2023-02-11T10:22:35.848Z,929.00
2023-02-11T10:23:35.883Z,883.00
2023-02-11T10:24:35.848Z,978.00
2023-02-11T10:25:35.834Z,758.00
2023-02-11T10:26:35.826Z,661.00
2023-02-11T10:27:35.884Z,989.00
2023-02-11T10:28:35.912Z,874.00
2023-02-11T10:29:35.785Z,886.00
2023-02-11T10:30:35.790Z,1090.00
2023-02-11T10:31:35.921Z,884.00
2023-02-11T10:32:35.782Z,872.00
2023-02-11T10:33:35.762Z,830.00
2023-02-11T10:34:35.809Z,841.00
2023-02-11T10:35:35.726Z,921.00
2023-02-11T10:36:35.698Z,924.00
2023-02-11T10:37:35.740Z,919.00
2023-02-11T10:38:35.685Z,895.00
2023-02-11T10:39:35.665Z,935.00
2023-02-11T10:40:35.678Z,964.00
2023-02-11T10:41:35.648Z,1025.00
2023-02-11T10:42:35.684Z,719.00
2023-02-11T10:43:35.640Z,784.00
2023-02-11T10:44:35.629Z,798.00
2023-02-11T10:45:35.628Z,883.00
2023-02-11T10:46:35.653Z,1247.00
2023-02-11T10:47:35.767Z,1119.00
2023-02-11T10:48:35.596Z,1080.00
2023-02-11T10:49:35.599Z,1217.00
2023-02-11T10:50:35.668Z,1012.00
2023-02-11T10:51:35.551Z,1026.00
2023-02-11T10:52:35.592Z,888.00
2023-02-11T10:53:35.675Z,860.00
2023-02-11T10:54:35.584Z,976.00
2023-02-11T10:55:35.532Z,977.00
2023-02-11T10:56:35.675Z,1219.00
2023-02-11T10:57:35.480Z,1066.00
2023-02-11T10:58:35.473Z,1163.00
2023-02-11T10:59:35.521Z,1167.00
2023-02-11T11:00:35.534Z,1249.00
2023-02-11T11:01:35.618Z,1377.00
2023-02-11T11:02:35.449Z,1215.00
2023-02-11T11:03:35.455Z,1030.00
2023-02-11T11:04:35.466Z,1218.00
2023-02-11T11:05:35.437Z,1160.00
2023-02-11T11:06:35.401Z,1095.00
2023-02-11T11:07:35.374Z,1441.00
2023-02-11T11:08:35.390Z,1076.00
2023-02-11T11:09:35.393Z,1406.00
2023-02-11T11:10:35.378Z,1134.00
2023-02-11T11:11:35.353Z,1161.00
2023-02-11T11:12:35.341Z,1292.00
2023-02-11T11:13:35.321Z,1023.00
2023-02-11T11:14:35.346Z,851.00
2023-02-11T11:15:35.373Z,978.00
2023-02-11T11:16:35.293Z,952.00
2023-02-11T11:17:35.263Z,1179.00
2023-02-11T11:18:35.308Z,1309.00
2023-02-11T11:19:35.284Z,1165.00
2023-02-11T11:20:35.246Z,778.00
2023-02-11T11:21:35.293Z,1110.00
2023-02-11T11:22:35.311Z,918.00
2023-02-11T11:23:35.247Z,866.00
2023-02-11T11:24:35.250Z,597.00
2023-02-11T11:25:35.203Z,892.00
2023-02-11T11:26:35.184Z,922.00
2023-02-11T11:27:35.249Z,854.00
2023-02-11T11:28:35.266Z,1051.00
2023-02-11T11:29:35.176Z,1139.00
2023-02-11T11:30:35.206Z,1160.00
2023-02-11T11:31:35.368Z,1028.00
2023-02-11T11:32:35.141Z,1220.00
2023-02-11T11:33:35.113Z,918.00
2023-02-11T11:34:35.130Z,820.00
2023-02-11T11:35:35.107Z,1072.00
2023-02-11T11:36:35.191Z,950.00
2023-02-11T11:37:35.122Z,1034.00
2023-02-11T11:38:35.065Z,1023.00
2023-02-11T11:39:35.069Z,1000.00
2023-02-11T11:40:35.054Z,1244.00
2023-02-11T11:41:35.056Z,1032.00
2023-02-11T11:42:35.044Z,1087.00
2023-02-11T11:43:35.053Z,987.00
2023-02-11T11:44:35.003Z,1163.00
2023-02-11T11:45:35.026Z,1030.00
2023-02-11T11:46:34.997Z,939.00
2023-02-11T11:47:34.966Z,1147.00
2023-02-11T11:48:34.956Z,878.00
2023-02-11T11:49:34.971Z,1129.00
2023-02-11T11:50:34.990Z,1014.00
2023-02-11T11:51:34.931Z,896.00
2023-02-11T11:52:34.900Z,1136.00
2023-02-11T11:53:34.909Z,1120.00
2023-02-11T11:54:34.933Z,1011.00
2023-02-11T11:55:34.879Z,1190.00
2023-02-11T11:56:34.896Z,1164.00
2023-02-11T11:57:34.923Z,1250.00
2023-02-11T11:58:34.863Z,1246.00
2023-02-11T11:59:34.835Z,1187.00
2023-02-11T12:00:34.854Z,1501.00
2023-02-11T12:01:34.848Z,1089.00
2023-02-11T12:02:34.843Z,670.00
2023-02-11T12:03:34.814Z,1210.00
2023-02-11T12:04:34.795Z,989.00
2023-02-11T12:05:34.818Z,821.00
2023-02-11T12:06:34.778Z,950.00
2023-02-11T12:07:34.762Z,876.00
2023-02-11T12:08:34.773Z,970.00
2023-02-11T12:09:34.723Z,790.00
2023-02-11T12:10:34.713Z,1038.00
2023-02-11T12:11:34.744Z,1234.00
2023-02-11T12:12:34.763Z,1052.00
2023-02-11T12:13:34.733Z,1146.00
2023-02-11T12:14:34.731Z,1236.00
2023-02-11T12:15:34.692Z,1389.00
2023-02-11T12:16:34.771Z,1090.00
2023-02-11T12:17:34.657Z,1437.00
2023-02-11T12:18:34.672Z,1355.00
2023-02-11T12:19:34.681Z,1216.00
2023-02-11T12:20:34.607Z,1075.00
2023-02-11T12:21:34.618Z,784.00
2023-02-11T12:22:34.719Z,953.00
2023-02-11T12:23:34.599Z,927.00
2023-02-11T12:24:34.576Z,1269.00
2023-02-11T12:25:34.555Z,1319.00
2023-02-11T12:26:34.578Z,1697.00
2023-02-11T12:27:34.647Z,1350.00
2023-02-11T12:28:34.625Z,964.00
2023-02-11T12:29:34.526Z,1065.00
2023-02-11T12:30:34.567Z,1779.00
2023-02-11T12:31:34.559Z,1400.00
2023-02-11T12:32:34.497Z,1231.00
2023-02-11T12:33:34.489Z,1085.00
2023-02-11T12:34:34.510Z,1002.00
2023-02-11T12:35:34.529Z,1262.00
2023-02-11T12:36:34.448Z,994.00
2023-02-11T12:37:34.459Z,1303.00
2023-02-11T12:38:34.460Z,1318.00
2023-02-11T12:39:34.474Z,1305.00
2023-02-11T12:40:34.420Z,970.00
2023-02-11T12:41:34.436Z,787.00
2023-02-11T12:42:34.392Z,1335.00
2023-02-11T12:43:34.412Z,1210.00
2023-02-11T12:44:34.390Z,1332.00
2023-02-11T12:45:34.402Z,852.00
2023-02-11T12:46:34.350Z,1111.00
2023-02-11T12:47:34.340Z,1351.00
2023-02-11T12:48:35.840Z,1037.00
2023-02-11T12:49:34.366Z,990.00
2023-02-11T12:50:34.334Z,637.00